Time,TemperatureF,DewpointF,PressureIn,WindDirection,WindDirectionDegrees,WindSpeedMPH,WindSpeedGustMPH,Humidity,HourlyPrecipIn,Conditions,Clouds,dailyrainin,SoftwareType,DateUTC
2014-09-14 00:06:00,64.0,61.9,30.06,North,0,0.0,0.0,93,0.00,,---,0.00,VWS V14.01,2014-09-14 05:06:00,
2014-09-14 00:16:00,64.0,61.9,30.05,North,0,0.0,0.0,93,0.00,,---,0.00,VWS V14.01,2014-09-14 05:16:00,
2014-09-14 00:26:00,64.0,61.9,30.05,North,0,0.0,0.0,93,0.00,,---,0.00,VWS V14.01,2014-09-14 05:26:00,
2014-09-14 00:36:00,64.2,62.1,30.05,North,0,0.0,0.0,93,0.00,,---,0.00,VWS V14.01,2014-09-14 05:36:00,
2014-09-14 00:46:00,64.2,62.1,30.05,North,0,0.0,0.0,93,0.00,,---,0.00,VWS V14.01,2014-09-14 05:46:00,
2014-09-14 00:56:00,64.2,62.1,30.05,North,0,0.0,0.0,93,0.00,,---,0.00,VWS V14.01,2014-09-14 05:56:00,
2014-09-14 01:06:00,64.3,62.2,30.05,North,0,0.0,0.0,93,0.00,,---,0.00,VWS V14.01,2014-09-14 06:06:00,
2014-09-14 01:16:00,64.3,62.2,30.05,North,0,0.0,0.0,93,0.00,,---,0.00,VWS V14.01,2014-09-14 06:16:00,
2014-09-14 01:26:00,64.5,62.4,30.05,North,0,0.0,0.0,93,0.00,,---,0.00,VWS V14.01,2014-09-14 06:26:00,
2014-09-14 01:36:00,64.5,62.4,30.05,North,0,0.0,0.0,93,0.00,,---,0.00,VWS V14.01,2014-09-14 06:36:00,
2014-09-14 01:46:00,64.5,62.4,30.04,North,0,0.0,0.0,93,0.00,,---,0.00,VWS V14.01,2014-09-14 06:46:00,
2014-09-14 01:56:00,64.5,62.4,30.04,North,0,0.0,0.0,93,0.00,,---,0.00,VWS V14.01,2014-09-14 06:56:00,
2014-09-14 02:06:00,64.3,62.2,30.04,North,0,0.0,0.0,93,0.00,,---,0.00,VWS V14.01,2014-09-14 07:06:00,
2014-09-14 02:16:00,64.3,62.2,30.03,North,0,0.0,0.0,93,0.00,,---,0.00,VWS V14.01,2014-09-14 07:16:00,
2014-09-14 02:26:00,64.2,62.1,30.03,North,0,0.0,0.0,93,0.00,,---,0.00,VWS V14.01,2014-09-14 07:26:00,
2014-09-14 02:36:00,64.2,62.1,30.04,North,0,0.0,0.0,93,0.00,,---,0.00,VWS V14.01,2014-09-14 07:36:00,
2014-09-14 02:46:00,64.2,62.1,30.04,North,0,0.0,0.0,93,0.00,,---,0.00,VWS V14.01,2014-09-14 07:46:00,
2014-09-14 02:56:00,64.2,62.1,30.04,North,0,0.0,0.0,93,0.00,,---,0.00,VWS V14.01,2014-09-14 07:56:00,
2014-09-14 03:06:00,64.2,62.1,30.05,North,0,0.0,0.0,93,0.00,,---,0.00,VWS V14.01,2014-09-14 08:06:00,
2014-09-14 03:16:00,64.2,62.1,30.04,North,0,0.0,0.0,93,0.00,,---,0.00,VWS V14.01,2014-09-14 08:16:00,
2014-09-14 03:26:00,64.2,62.1,30.04,North,0,0.0,0.0,93,0.00,,---,0.00,VWS V14.01,2014-09-14 08:26:00,
2014-09-14 03:36:00,64.0,61.9,30.04,North,0,0.0,0.0,93,0.00,,---,0.00,VWS V14.01,2014-09-14 08:36:00,
2014-09-14 03:46:00,64.0,61.9,30.04,North,0,0.0,0.0,93,0.00,,---,0.00,VWS V14.01,2014-09-14 08:46:00,
2014-09-14 03:56:00,63.9,61.5,30.04,North,0,0.0,0.0,92,0.00,,---,0.00,VWS V14.01,2014-09-14 08:56:00,
2014-09-14 04:06:00,63.9,61.5,30.04,North,0,0.0,0.0,92,0.00,,---,0.00,VWS V14.01,2014-09-14 09:06:00,
2014-09-14 04:16:00,63.9,61.5,30.04,North,0,0.0,0.0,92,0.00,,---,0.00,VWS V14.01,2014-09-14 09:16:00,
2014-09-14 04:26:00,63.9,61.5,30.04,North,0,0.0,0.0,92,0.00,,---,0.00,VWS V14.01,2014-09-14 09:26:00,
2014-09-14 04:36:00,63.9,61.5,30.03,North,0,0.0,0.0,92,0.00,,---,0.00,VWS V14.01,2014-09-14 09:36:00,
2014-09-14 04:46:00,63.9,61.5,30.03,North,0,0.0,0.0,92,0.00,,---,0.00,VWS V14.01,2014-09-14 09:46:00,
2014-09-14 04:57:00,63.9,61.5,30.03,North,0,0.0,0.0,92,0.00,,---,0.00,VWS V14.01,2014-09-14 09:57:00,
2014-09-14 05:07:00,63.9,61.5,30.03,North,0,0.0,0.0,92,0.00,,---,0.00,VWS V14.01,2014-09-14 10:07:00,
2014-09-14 05:17:00,63.9,61.5,30.04,North,0,0.0,0.0,92,0.00,,---,0.00,VWS V14.01,2014-09-14 10:17:00,
2014-09-14 05:27:00,63.9,61.5,30.04,North,0,0.0,0.0,92,0.00,,---,0.00,VWS V14.01,2014-09-14 10:27:00,
2014-09-14 05:37:00,63.9,61.5,30.05,North,0,0.0,0.0,92,0.00,,---,0.00,VWS V14.01,2014-09-14 10:37:00,
2014-09-14 05:47:00,63.9,61.5,30.05,North,0,0.0,0.0,92,0.00,,---,0.00,VWS V14.01,2014-09-14 10:47:00,
2014-09-14 05:57:00,63.9,61.5,30.05,North,0,0.0,0.0,92,0.00,,---,0.00,VWS V14.01,2014-09-14 10:57:00,
2014-09-14 06:07:00,63.9,61.5,30.05,North,0,0.0,0.0,92,0.00,,---,0.00,VWS V14.01,2014-09-14 11:07:00,
2014-09-14 06:17:00,63.9,61.5,30.05,North,0,0.0,0.0,92,0.00,,---,0.00,VWS V14.01,2014-09-14 11:17:00,
2014-09-14 06:27:00,63.9,61.5,30.05,North,0,0.0,0.0,92,0.00,,---,0.00,VWS V14.01,2014-09-14 11:27:00,
2014-09-14 06:37:00,64.0,61.6,30.06,North,0,0.0,0.0,92,0.00,,---,0.00,VWS V14.01,2014-09-14 11:37:00,
2014-09-14 06:47:00,64.0,61.6,30.06,North,0,0.0,0.0,92,0.00,,---,0.00,VWS V14.01,2014-09-14 11:47:00,
2014-09-14 06:57:00,64.0,61.6,30.06,North,0,0.0,0.0,92,0.00,,---,0.00,VWS V14.01,2014-09-14 11:57:00,
2014-09-14 07:07:00,64.0,61.6,30.06,North,0,0.0,0.0,92,0.00,,---,0.00,VWS V14.01,2014-09-14 12:07:00,
2014-09-14 07:17:00,63.9,61.5,30.06,North,0,0.0,0.0,92,0.00,,---,0.00,VWS V14.01,2014-09-14 12:17:00,
2014-09-14 07:27:00,63.9,61.5,30.06,North,0,0.0,0.0,92,0.00,,---,0.00,VWS V14.01,2014-09-14 12:27:00,
2014-09-14 07:37:00,63.9,61.5,30.06,North,0,0.0,0.0,92,0.00,,---,0.00,VWS V14.01,2014-09-14 12:37:00,
2014-09-14 07:47:00,64.0,61.6,30.08,North,0,0.0,0.0,92,0.00,,---,0.00,VWS V14.01,2014-09-14 12:47:00,
2014-09-14 07:57:00,64.0,61.6,30.08,North,0,0.0,0.0,92,0.00,,---,0.00,VWS V14.01,2014-09-14 12:57:00,
2014-09-14 08:07:00,64.0,61.6,30.08,North,0,0.0,0.0,92,0.00,,---,0.00,VWS V14.01,2014-09-14 13:07:00,
2014-09-14 08:17:00,64.0,61.6,30.08,North,0,0.0,0.0,92,0.00,,---,0.00,VWS V14.01,2014-09-14 13:17:00,
2014-09-14 08:27:00,64.0,61.6,30.08,North,0,0.0,0.0,92,0.00,,---,0.00,VWS V14.01,2014-09-14 13:27:00,
2014-09-14 08:37:00,64.2,61.8,30.08,North,0,0.0,0.0,92,0.00,,---,0.00,VWS V14.01,2014-09-14 13:37:00,
2014-09-14 08:47:00,64.3,61.9,30.08,North,0,0.0,0.0,92,0.00,,---,0.00,VWS V14.01,2014-09-14 13:47:00,
2014-09-14 08:57:00,64.5,62.1,30.08,North,0,0.0,0.0,92,0.00,,---,0.00,VWS V14.01,2014-09-14 13:57:00,
2014-09-14 09:07:00,64.5,61.8,30.09,North,0,0.0,0.0,91,0.00,,---,0.00,VWS V14.01,2014-09-14 14:07:00,
2014-09-14 09:17:00,64.7,62.0,30.09,North,0,0.0,0.0,91,0.00,,---,0.00,VWS V14.01,2014-09-14 14:17:00,
2014-09-14 09:27:00,64.8,62.1,30.09,North,0,0.0,0.0,91,0.00,,---,0.00,VWS V14.01,2014-09-14 14:27:00,
2014-09-14 09:37:00,64.8,62.1,30.09,North,0,0.0,0.0,91,0.00,,---,0.00,VWS V14.01,2014-09-14 14:37:00,
2014-09-14 09:47:00,64.8,62.1,30.09,North,0,0.0,0.0,91,0.00,,---,0.00,VWS V14.01,2014-09-14 14:47:00,
2014-09-14 09:57:00,65.2,62.5,30.09,North,0,0.0,0.0,91,0.00,,---,0.00,VWS V14.01,2014-09-14 14:57:00,
2014-09-14 10:07:00,65.3,62.6,30.09,North,0,0.0,0.0,91,0.00,,---,0.00,VWS V14.01,2014-09-14 15:07:00,
2014-09-14 10:17:00,65.5,62.8,30.09,North,0,0.0,0.0,91,0.00,,---,0.00,VWS V14.01,2014-09-14 15:17:00,
2014-09-14 10:27:00,66.0,63.3,30.09,North,0,0.0,0.0,91,0.00,,---,0.00,VWS V14.01,2014-09-14 15:27:00,
2014-09-14 10:37:00,66.0,63.0,30.09,North,0,0.0,0.0,90,0.00,,---,0.00,VWS V14.01,2014-09-14 15:37:00,
2014-09-14 10:47:00,66.1,62.8,30.09,North,0,0.0,0.0,89,0.00,,---,0.00,VWS V14.01,2014-09-14 15:47:00,
2014-09-14 10:57:00,66.3,63.0,30.09,North,0,0.0,0.0,89,0.00,,---,0.00,VWS V14.01,2014-09-14 15:57:00,
2014-09-14 11:07:00,66.4,63.1,30.09,North,0,0.0,0.0,89,0.00,,---,0.00,VWS V14.01,2014-09-14 16:07:00,
2014-09-14 11:17:00,66.4,62.7,30.09,North,0,0.0,0.0,88,0.00,,---,0.00,VWS V14.01,2014-09-14 16:17:00,
2014-09-14 11:27:00,66.6,62.9,30.09,North,0,0.0,0.0,88,0.00,,---,0.00,VWS V14.01,2014-09-14 16:27:00,
2014-09-14 11:37:00,66.8,63.1,30.10,North,0,0.0,0.0,88,0.00,,---,0.00,VWS V14.01,2014-09-14 16:37:00,
2014-09-14 11:47:00,66.8,63.1,30.10,North,0,0.0,0.0,88,0.00,,---,0.00,VWS V14.01,2014-09-14 16:47:00,
2014-09-14 11:57:00,66.9,62.9,30.10,North,0,0.0,0.0,87,0.00,,---,0.00,VWS V14.01,2014-09-14 16:57:00,
2014-09-14 12:07:00,67.1,63.1,30.10,North,0,0.0,0.0,87,0.00,,---,0.00,VWS V14.01,2014-09-14 17:07:00,
2014-09-14 12:17:00,67.1,62.8,30.10,North,0,0.0,0.0,86,0.00,,---,0.00,VWS V14.01,2014-09-14 17:17:00,
2014-09-14 12:27:00,67.3,63.0,30.10,North,0,0.0,0.0,86,0.00,,---,0.00,VWS V14.01,2014-09-14 17:27:00,
2014-09-14 12:37:00,67.4,63.1,30.10,North,0,0.0,0.0,86,0.00,,---,0.00,VWS V14.01,2014-09-14 17:37:00,
2014-09-14 12:47:00,67.8,63.5,30.09,North,0,0.0,0.0,86,0.00,,---,0.00,VWS V14.01,2014-09-14 17:47:00,
2014-09-14 12:57:00,68.3,64.0,30.09,North,0,0.0,0.0,86,0.00,,---,0.00,VWS V14.01,2014-09-14 17:57:00,
2014-09-14 13:07:00,69.1,64.4,30.08,North,0,0.0,0.0,85,0.00,,---,0.00,VWS V14.01,2014-09-14 18:07:00,
2014-09-14 13:17:00,69.4,64.0,30.08,North,0,0.0,0.0,83,0.00,,---,0.00,VWS V14.01,2014-09-14 18:17:00,
2014-09-14 13:27:00,69.8,64.1,30.08,North,0,0.0,0.0,82,0.00,,---,0.00,VWS V14.01,2014-09-14 18:27:00,
2014-09-14 13:37:00,70.1,64.0,30.07,North,0,0.0,0.0,81,0.00,,---,0.00,VWS V14.01,2014-09-14 18:37:00,
2014-09-14 13:47:00,70.6,64.5,30.07,North,0,0.0,0.0,81,0.00,,---,0.00,VWS V14.01,2014-09-14 18:47:00,
2014-09-14 13:57:00,71.1,64.3,30.07,North,0,0.0,0.0,79,0.00,,---,0.00,VWS V14.01,2014-09-14 18:57:00,
2014-09-14 14:07:00,71.5,64.3,30.07,North,0,0.0,0.0,78,0.00,,---,0.00,VWS V14.01,2014-09-14 19:07:00,
2014-09-14 14:17:00,71.6,64.0,30.06,North,0,0.0,0.0,77,0.00,,---,0.00,VWS V14.01,2014-09-14 19:17:00,
2014-09-14 14:27:00,72.0,64.4,30.06,North,0,0.0,0.0,77,0.00,,---,0.00,VWS V14.01,2014-09-14 19:27:00,
2014-09-14 14:37:00,72.1,64.1,30.05,North,0,0.0,0.0,76,0.00,,---,0.00,VWS V14.01,2014-09-14 19:37:00,
2014-09-14 14:47:00,72.3,63.9,30.04,North,0,0.0,0.0,75,0.00,,---,0.00,VWS V14.01,2014-09-14 19:47:00,
2014-09-14 14:57:00,72.5,64.5,30.04,North,0,0.0,0.0,76,0.00,,---,0.00,VWS V14.01,2014-09-14 19:57:00,
2014-09-14 15:07:00,73.0,64.2,30.04,North,0,0.0,0.0,74,0.00,,---,0.00,VWS V14.01,2014-09-14 20:07:00,
2014-09-14 15:17:00,73.5,65.1,30.03,North,0,0.0,0.0,75,0.00,,---,0.00,VWS V14.01,2014-09-14 20:17:00,
2014-09-14 15:27:00,74.2,64.6,30.03,North,0,0.0,0.0,72,0.00,,---,0.00,VWS V14.01,2014-09-14 20:27:00,
2014-09-14 15:37:00,74.2,64.6,30.02,North,0,0.0,0.0,72,0.00,,---,0.00,VWS V14.01,2014-09-14 20:37:00,
2014-09-14 15:47:00,74.6,65.0,30.02,North,0,0.0,0.0,72,0.00,,---,0.00,VWS V14.01,2014-09-14 20:47:00,
2014-09-14 15:57:00,75.1,64.7,30.02,North,0,0.0,0.0,70,0.00,,---,0.00,VWS V14.01,2014-09-14 20:57:00,
2014-09-14 16:07:00,75.1,65.1,30.01,North,0,0.0,0.0,71,0.00,,---,0.00,VWS V14.01,2014-09-14 21:07:00,
2014-09-14 16:18:00,74.7,65.1,30.00,North,0,0.0,0.0,72,0.00,,---,0.00,VWS V14.01,2014-09-14 21:18:00,
2014-09-14 16:28:00,75.1,65.5,30.00,North,0,0.0,0.0,72,0.00,,---,0.00,VWS V14.01,2014-09-14 21:28:00,
2014-09-14 16:38:00,75.3,64.8,30.00,North,0,0.0,0.0,70,0.00,,---,0.00,VWS V14.01,2014-09-14 21:38:00,
2014-09-14 16:48:00,75.8,65.3,29.99,North,0,0.0,0.0,70,0.00,,---,0.00,VWS V14.01,2014-09-14 21:48:00,
2014-09-14 16:58:00,76.3,65.4,29.99,North,0,0.0,0.0,69,0.00,,---,0.00,VWS V14.01,2014-09-14 21:58:00,
2014-09-14 17:08:00,77.0,66.5,29.99,North,0,0.0,0.0,70,0.00,,---,0.00,VWS V14.01,2014-09-14 22:08:00,
2014-09-14 17:18:00,77.7,65.9,29.99,North,0,0.0,0.0,67,0.00,,---,0.00,VWS V14.01,2014-09-14 22:18:00,
2014-09-14 17:28:00,78.8,66.1,29.99,North,0,0.0,0.0,65,0.00,,---,0.00,VWS V14.01,2014-09-14 22:28:00,
2014-09-14 17:38:00,78.8,66.1,29.99,North,0,0.0,0.0,65,0.00,,---,0.00,VWS V14.01,2014-09-14 22:38:00,
2014-09-14 17:48:00,78.8,66.1,29.99,North,0,0.0,0.0,65,0.00,,---,0.00,VWS V14.01,2014-09-14 22:48:00,
2014-09-14 17:58:00,78.3,66.0,29.99,North,0,0.0,0.0,66,0.00,,---,0.00,VWS V14.01,2014-09-14 22:58:00,
2014-09-14 18:08:00,77.2,65.8,29.99,North,0,0.0,0.0,68,0.00,,---,0.00,VWS V14.01,2014-09-14 23:08:00,
2014-09-14 18:18:00,76.7,65.8,29.99,North,0,0.0,0.0,69,0.00,,---,0.00,VWS V14.01,2014-09-14 23:18:00,
2014-09-14 18:28:00,76.3,65.4,29.99,North,0,0.0,0.0,69,0.00,,---,0.00,VWS V14.01,2014-09-14 23:28:00,
2014-09-14 18:38:00,75.8,65.7,29.98,North,0,0.0,0.0,71,0.00,,---,0.00,VWS V14.01,2014-09-14 23:38:00,
2014-09-14 18:48:00,75.3,65.3,29.98,North,0,0.0,0.0,71,0.00,,---,0.00,VWS V14.01,2014-09-14 23:48:00,
2014-09-14 18:58:00,74.9,65.7,29.98,North,0,0.0,0.0,73,0.00,,---,0.00,VWS V14.01,2014-09-14 23:58:00,
2014-09-14 19:08:00,74.6,65.8,29.98,North,0,0.0,0.0,74,0.00,,---,0.00,VWS V14.01,2014-09-15 00:08:00,
2014-09-14 19:18:00,73.9,65.5,29.98,North,0,0.0,0.0,75,0.00,,---,0.00,VWS V14.01,2014-09-15 00:18:00,
2014-09-14 19:28:00,73.5,65.9,29.98,North,0,0.0,0.0,77,0.00,,---,0.00,VWS V14.01,2014-09-15 00:28:00,
2014-09-14 19:38:00,73.0,65.4,29.98,North,0,0.0,0.0,77,0.00,,---,0.00,VWS V14.01,2014-09-15 00:38:00,
2014-09-14 19:48:00,72.3,65.4,29.99,North,0,0.0,0.0,79,0.00,,---,0.00,VWS V14.01,2014-09-15 00:48:00,
2014-09-14 19:58:00,72.0,65.5,29.99,North,0,0.0,0.0,80,0.00,,---,0.00,VWS V14.01,2014-09-15 00:58:00,
2014-09-14 20:08:00,71.8,65.7,29.99,North,0,0.0,0.0,81,0.00,,---,0.00,VWS V14.01,2014-09-15 01:08:00,
2014-09-14 20:18:00,71.5,65.7,29.99,North,0,0.0,0.0,82,0.00,,---,0.00,VWS V14.01,2014-09-15 01:18:00,
2014-09-14 20:28:00,71.1,65.3,29.99,North,0,0.0,0.0,82,0.00,,---,0.00,VWS V14.01,2014-09-15 01:28:00,
2014-09-14 20:38:00,70.9,65.5,29.99,North,0,0.0,0.0,83,0.00,,---,0.00,VWS V14.01,2014-09-15 01:38:00,
2014-09-14 20:48:00,70.8,65.4,29.99,North,0,0.0,0.0,83,0.00,,---,0.00,VWS V14.01,2014-09-15 01:48:00,
2014-09-14 20:58:00,70.6,65.5,29.99,North,0,0.0,0.0,84,0.00,,---,0.00,VWS V14.01,2014-09-15 01:58:00,
2014-09-14 21:08:00,70.4,65.3,30.00,North,0,0.0,0.0,84,0.00,,---,0.00,VWS V14.01,2014-09-15 02:08:00,
2014-09-14 21:18:00,70.4,65.3,30.00,North,0,0.0,0.0,84,0.00,,---,0.00,VWS V14.01,2014-09-15 02:18:00,
2014-09-14 21:28:00,70.3,65.2,30.00,North,0,0.0,0.0,84,0.00,,---,0.00,VWS V14.01,2014-09-15 02:28:00,
2014-09-14 21:38:00,70.3,65.2,30.00,North,0,0.0,0.0,84,0.00,,---,0.00,VWS V14.01,2014-09-15 02:38:00,
2014-09-14 21:48:00,70.1,65.4,30.01,North,0,0.0,0.0,85,0.00,,---,0.00,VWS V14.01,2014-09-15 02:48:00,
2014-09-14 21:58:00,69.9,65.2,30.01,North,0,0.0,0.0,85,0.00,,---,0.00,VWS V14.01,2014-09-15 02:58:00,
2014-09-14 22:08:00,69.9,65.2,30.01,North,0,0.0,0.0,85,0.00,,---,0.00,VWS V14.01,2014-09-15 03:08:00,
2014-09-14 22:18:00,69.9,65.5,30.01,North,0,0.0,0.0,86,0.00,,---,0.00,VWS V14.01,2014-09-15 03:18:00,
2014-09-14 22:28:00,69.9,65.5,30.01,North,0,0.0,0.0,86,0.00,,---,0.00,VWS V14.01,2014-09-15 03:28:00,
2014-09-14 22:38:00,69.8,65.4,30.01,North,0,0.0,0.0,86,0.00,,---,0.00,VWS V14.01,2014-09-15 03:38:00,